Hauptseite
METAR-TAF:

METAR-TAF

Flughäfen :

Dakar, Senegal

Flughafen Dakar-Léopold Sédar Senghor

Breite: 14-44N, Länge: 017-30W, Höhe: 27 m

Beobachtung

Neuester Wetterbericht von vor 58 Minuten, um 23:00 UTC
Wind 10 kt aus Nord/Nordost
Temperatur 18°C
Luftfeuchtigkeit 77%
Luftdruck 1016 hPa
Sichtweite: 6000 m

METAR: GOOY 172300Z 02010KT 6000 NSC 18/14 Q1016

Zeit: 23:58 (23:58 UTC)

Prognose

Neuester Wetterbericht von vor 28 Minuten, um 23:30 UTC
Gültige Prognose vom 18 um 00 UTC bis 19 um 06 UTC
Wind 16 kt aus Nord/Nordost
Sichtweite: 4500 m
verbreitet Staub

TAF: GOOY 172330Z 1800/1906 02016KT 4500 DU NSC

Wetterbeobachtungen und Prognosen von mehr als 4000 Flughäfen (METAR und TAF Bericht).

Die verfügbaren Stationen werden durch gelbe und rote Markierungen auf der Karte dargestellt.

Führen Sie die Maus auf sie, um den Namen der Station zu sehen.

Darauf klicken, um die Beobachtung von Wetterbeobachtungen und Prognosen zu sehen.

Um die Karte zu ändern : klicken Sie auf den grünen Tasten mit einem schwarzen Kreuz Zum Vergrößern, auf den grünen Button mit einem Gedankenstrich zu verkleinern, oder auf die grünen Pfeile für benachbarte Karten.


METAR-TAF: